Time;durP1;ratioP1;P1;durP2;ratioP2;P2;SDS_P1;SDS_P2;PMS_P1;PMS_P2;Temp;Humidity;BMP_temperature;BMP_pressure;BME280_temperature;BME280_humidity;BME280_pressure;Samples;Min_cycle;Max_cycle;Signal;HPM_P1;HPM_P2
2022/10/18 00:02:20;;;;;;;8.05;2.70;;;;;;;;;;8273876;28;20581;-63
2022/10/18 00:06:20;;;;;;;9.50;2.60;;;;;;;;;;8273908;28;20028;-62
2022/10/18 00:10:20;;;;;;;8.38;3.20;;;;;;;;;;8274221;28;20033;-63
2022/10/18 00:14:21;;;;;;;12.35;3.15;;;;;;;;;;8272697;28;20037;-63
2022/10/18 00:18:22;;;;;;;11.95;3.78;;;;;;;;;;8270645;28;20147;-63
2022/10/18 00:22:22;;;;;;;10.73;4.18;;;;;;;;;;8272620;28;20292;-63
2022/10/18 00:26:23;;;;;;;11.13;3.75;;;;;;;;;;8269927;28;20025;-62
2022/10/18 00:30:24;;;;;;;9.70;3.63;;;;;;;;;;8271115;28;20033;-63
2022/10/18 00:34:24;;;;;;;10.68;3.70;;;;;;;;;;8272117;28;20095;-63
2022/10/18 00:38:24;;;;;;;7.50;3.90;;;;;;;;;;8271853;28;20577;-63
2022/10/18 00:42:26;;;;;;;7.07;3.28;;;;;;;;;;8271610;28;20032;-63
2022/10/18 00:46:28;;;;;;;7.32;3.30;;;;;;;;;;8273964;28;20033;-63
2022/10/18 00:50:31;;;;;;;8.48;3.40;;;;;;;;;;8270880;28;20033;-63
2022/10/18 00:54:33;;;;;;;4.80;3.33;;;;;;;;;;8272872;28;20447;-63
2022/10/18 00:58:34;;;;;;;10.60;3.88;;;;;;;;;;8270797;28;20690;-63
2022/10/18 01:02:38;;;;;;;5.75;3.47;;;;;;;;;;8271625;28;20108;-63
2022/10/18 01:06:50;;;;;;;12.05;3.20;;;;;;;;;;8273878;28;20136;-62
2022/10/18 01:11:01;;;;;;;7.18;3.30;;;;;;;;;;8270573;28;20076;-62
2022/10/18 01:15:10;;;;;;;7.43;3.67;;;;;;;;;;8270347;28;20026;-62
2022/10/18 01:19:16;;;;;;;7.63;3.47;;;;;;;;;;8270458;28;21031;-63
2022/10/18 01:23:23;;;;;;;17.30;3.70;;;;;;;;;;8268858;28;20395;-63
2022/10/18 01:27:32;;;;;;;14.25;3.85;;;;;;;;;;8269850;28;20032;-63
2022/10/18 01:31:38;;;;;;;9.55;3.40;;;;;;;;;;8269252;28;20644;-63
2022/10/18 01:35:41;;;;;;;10.07;3.50;;;;;;;;;;8268987;28;20040;-63
2022/10/18 01:39:43;;;;;;;11.52;3.20;;;;;;;;;;8270406;28;20398;-63
2022/10/18 01:43:45;;;;;;;8.18;3.42;;;;;;;;;;8271235;28;20061;-63
2022/10/18 01:47:46;;;;;;;4.88;2.58;;;;;;;;;;8269755;28;20029;-62
2022/10/18 01:51:46;;;;;;;11.10;3.10;;;;;;;;;;8267267;28;20065;-63
2022/10/18 01:55:49;;;;;;;5.63;2.77;;;;;;;;;;8270675;28;20379;-62
2022/10/18 02:00:09;;;;;;;10.30;2.95;;;;;;;;;;8267968;28;20033;-62
2022/10/18 02:04:35;;;;;;;8.93;3.45;;;;;;;;;;8270082;28;20037;-63
2022/10/18 02:08:36;;;;;;;6.50;2.75;;;;;;;;;;8275402;28;20033;-62
2022/10/18 02:12:39;;;;;;;7.90;3.42;;;;;;;;;;8269096;28;20040;-62
2022/10/18 02:16:45;;;;;;;7.57;2.80;;;;;;;;;;8268163;28;20088;-63
2022/10/18 02:20:46;;;;;;;4.82;2.90;;;;;;;;;;8267169;28;20026;-63
2022/10/18 02:24:55;;;;;;;8.10;3.17;;;;;;;;;;8268902;28;20051;-62
2022/10/18 02:28:55;;;;;;;7.38;2.92;;;;;;;;;;8267366;28;20057;-62
2022/10/18 02:32:58;;;;;;;8.75;2.75;;;;;;;;;;8266766;28;20034;-62
2022/10/18 02:36:59;;;;;;;8.23;3.77;;;;;;;;;;8276288;28;20049;-63
2022/10/18 02:41:00;;;;;;;11.68;3.28;;;;;;;;;;8270219;28;20609;-63
2022/10/18 02:45:00;;;;;;;9.35;3.20;;;;;;;;;;8268590;28;20022;-63
2022/10/18 02:49:00;;;;;;;5.17;3.20;;;;;;;;;;8266918;28;20048;-63
2022/10/18 02:53:01;;;;;;;7.78;2.90;;;;;;;;;;8268732;28;20268;-63
2022/10/18 02:57:01;;;;;;;10.60;3.40;;;;;;;;;;8268161;28;20288;-63
2022/10/18 03:01:01;;;;;;;4.15;3.20;;;;;;;;;;8269152;28;20042;-62
2022/10/18 03:05:01;;;;;;;8.18;3.13;;;;;;;;;;8268497;28;20147;-63
2022/10/18 03:09:02;;;;;;;7.70;3.15;;;;;;;;;;8267578;28;20109;-62
2022/10/18 03:13:02;;;;;;;11.75;3.47;;;;;;;;;;8267905;28;20100;-62
2022/10/18 03:17:02;;;;;;;5.38;3.25;;;;;;;;;;8268051;28;20433;-62
2022/10/18 03:21:04;;;;;;;9.27;3.38;;;;;;;;;;8266636;28;20121;-62
2022/10/18 03:25:04;;;;;;;7.97;3.55;;;;;;;;;;8267644;28;20458;-62
2022/10/18 03:29:04;;;;;;;7.17;2.73;;;;;;;;;;8268651;28;20107;-63
2022/10/18 03:33:05;;;;;;;6.50;2.20;;;;;;;;;;8266369;28;20041;-62
2022/10/18 03:37:05;;;;;;;5.25;2.10;;;;;;;;;;8267531;28;20150;-62
2022/10/18 03:41:05;;;;;;;4.72;1.70;;;;;;;;;;8266044;28;20026;-63
2022/10/18 03:45:06;;;;;;;7.87;1.73;;;;;;;;;;8268648;28;20020;-63
2022/10/18 03:49:06;;;;;;;3.63;1.38;;;;;;;;;;8265851;28;20355;-62
2022/10/18 03:53:06;;;;;;;3.95;1.50;;;;;;;;;;8270012;28;20027;-62
2022/10/18 03:57:07;;;;;;;5.83;1.50;;;;;;;;;;8266284;28;20075;-62
2022/10/18 04:01:07;;;;;;;3.55;1.40;;;;;;;;;;8271813;28;20033;-62
2022/10/18 04:05:07;;;;;;;3.70;1.60;;;;;;;;;;8279188;28;20029;-62
2022/10/18 04:09:07;;;;;;;1.90;1.15;;;;;;;;;;8273660;28;20021;-62
2022/10/18 04:13:08;;;;;;;1.50;1.00;;;;;;;;;;8273377;28;20041;-62
2022/10/18 04:17:08;;;;;;;1.10;0.90;;;;;;;;;;8273957;28;20539;-62
2022/10/18 04:21:08;;;;;;;1.87;1.07;;;;;;;;;;8274335;28;20296;-62
2022/10/18 04:25:08;;;;;;;1.95;0.88;;;;;;;;;;8270815;28;20128;-62
2022/10/18 04:29:09;;;;;;;2.00;1.02;;;;;;;;;;8274159;28;20112;-62
2022/10/18 04:33:09;;;;;;;2.42;1.02;;;;;;;;;;8271853;28;20223;-62
2022/10/18 04:37:09;;;;;;;2.63;0.90;;;;;;;;;;8273135;28;20017;-62
2022/10/18 04:41:09;;;;;;;2.40;0.77;;;;;;;;;;8272754;28;20121;-62
2022/10/18 04:45:09;;;;;;;1.50;0.80;;;;;;;;;;8270910;28;20087;-62
2022/10/18 04:49:10;;;;;;;5.80;0.93;;;;;;;;;;8271236;28;20283;-62
2022/10/18 04:53:10;;;;;;;0.70;0.70;;;;;;;;;;8270259;28;20271;-62
2022/10/18 04:57:10;;;;;;;1.40;0.90;;;;;;;;;;8272031;28;20037;-62
2022/10/18 05:01:11;;;;;;;1.15;0.73;;;;;;;;;;8271040;28;20044;-62
2022/10/18 05:05:11;;;;;;;1.38;0.80;;;;;;;;;;8280229;28;20037;-62
2022/10/18 05:09:12;;;;;;;1.35;1.10;;;;;;;;;;8269549;28;20033;-62
2022/10/18 05:13:12;;;;;;;3.30;1.08;;;;;;;;;;8268764;28;20017;-62
2022/10/18 05:17:12;;;;;;;2.67;1.08;;;;;;;;;;8269893;28;20037;-62
2022/10/18 05:21:13;;;;;;;1.33;1.00;;;;;;;;;;8268848;28;20084;-62
2022/10/18 05:25:13;;;;;;;5.35;1.02;;;;;;;;;;8261948;28;20398;-62
2022/10/18 05:29:13;;;;;;;3.15;1.00;;;;;;;;;;8265322;28;20481;-62
2022/10/18 05:33:13;;;;;;;2.25;0.80;;;;;;;;;;8265945;28;20038;-62
2022/10/18 05:37:13;;;;;;;1.83;0.90;;;;;;;;;;8266656;28;20030;-62
2022/10/18 05:41:14;;;;;;;1.35;0.85;;;;;;;;;;8266841;28;20022;-62
2022/10/18 05:45:14;;;;;;;1.10;0.90;;;;;;;;;;8268957;28;20444;-62
2022/10/18 05:49:14;;;;;;;6.88;1.00;;;;;;;;;;8266475;28;20033;-62
2022/10/18 05:53:15;;;;;;;3.43;1.13;;;;;;;;;;8265812;28;20026;-62
2022/10/18 05:57:15;;;;;;;5.55;1.30;;;;;;;;;;8264806;28;20029;-62
2022/10/18 06:01:15;;;;;;;3.63;0.90;;;;;;;;;;8264400;28;20038;-62
2022/10/18 06:05:16;;;;;;;3.70;0.80;;;;;;;;;;8268412;28;20029;-62
2022/10/18 06:09:16;;;;;;;3.78;0.95;;;;;;;;;;8267600;28;20398;-63
2022/10/18 06:13:16;;;;;;;3.40;0.60;;;;;;;;;;8266847;28;20071;-63
2022/10/18 06:17:16;;;;;;;2.42;0.70;;;;;;;;;;8264370;28;20026;-62
2022/10/18 06:21:17;;;;;;;3.47;0.95;;;;;;;;;;8264597;28;20303;-63
2022/10/18 06:25:17;;;;;;;3.88;0.90;;;;;;;;;;8267188;28;20025;-63
2022/10/18 06:29:18;;;;;;;5.30;0.80;;;;;;;;;;8267229;28;20132;-63
2022/10/18 06:33:18;;;;;;;1.05;0.50;;;;;;;;;;8266134;28;20234;-62
2022/10/18 06:37:18;;;;;;;2.60;0.70;;;;;;;;;;8266206;28;20172;-63
2022/10/18 06:41:19;;;;;;;1.60;0.80;;;;;;;;;;8267744;28;20021;-62
2022/10/18 06:45:19;;;;;;;4.63;0.98;;;;;;;;;;8267547;28;20037;-63
2022/10/18 06:49:19;;;;;;;4.97;0.85;;;;;;;;;;8268617;28;20481;-63
2022/10/18 06:53:20;;;;;;;6.38;1.10;;;;;;;;;;8269134;28;20139;-63
2022/10/18 06:57:20;;;;;;;6.38;1.00;;;;;;;;;;8267206;28;20028;-63
2022/10/18 07:01:20;;;;;;;6.43;1.00;;;;;;;;;;8270171;28;20053;-63
2022/10/18 07:05:21;;;;;;;5.05;0.85;;;;;;;;;;8267027;28;20124;-62
2022/10/18 07:09:21;;;;;;;2.88;0.75;;;;;;;;;;8266907;28;20028;-62
2022/10/18 07:13:21;;;;;;;3.58;0.80;;;;;;;;;;8267868;28;20112;-62
2022/10/18 07:17:21;;;;;;;4.07;0.63;;;;;;;;;;8266331;28;20145;-61
2022/10/18 07:21:23;;;;;;;3.72;0.60;;;;;;;;;;8267044;28;20030;-62
2022/10/18 07:25:23;;;;;;;2.70;0.80;;;;;;;;;;8266764;28;20830;-61
2022/10/18 07:29:24;;;;;;;6.10;0.90;;;;;;;;;;8268011;28;20025;-63
2022/10/18 07:33:27;;;;;;;3.70;0.63;;;;;;;;;;8266991;28;20041;-63
2022/10/18 07:37:28;;;;;;;4.57;0.73;;;;;;;;;;8272657;28;20519;-63
2022/10/18 07:41:30;;;;;;;3.40;0.70;;;;;;;;;;8274076;28;20085;-63
2022/10/18 07:45:30;;;;;;;0.70;0.70;;;;;;;;;;8272106;28;20133;-63
2022/10/18 07:49:31;;;;;;;2.15;0.52;;;;;;;;;;8273047;28;20602;-63
2022/10/18 07:53:33;;;;;;;1.48;0.45;;;;;;;;;;8272207;28;20079;-63
2022/10/18 07:57:33;;;;;;;0.55;0.55;;;;;;;;;;8272236;28;20619;-63
2022/10/18 08:01:33;;;;;;;0.82;0.70;;;;;;;;;;8270447;28;20212;-63
2022/10/18 08:05:33;;;;;;;0.90;0.90;;;;;;;;;;8273848;28;20091;-63
2022/10/18 08:09:34;;;;;;;0.65;0.65;;;;;;;;;;8271642;28;20197;-63
2022/10/18 08:13:34;;;;;;;3.13;0.80;;;;;;;;;;8272883;28;20720;-63
2022/10/18 08:17:34;;;;;;;3.00;0.60;;;;;;;;;;8272241;28;20044;-63
2022/10/18 08:21:34;;;;;;;0.65;0.43;;;;;;;;;;8272358;28;20029;-63
2022/10/18 08:25:34;;;;;;;0.87;0.43;;;;;;;;;;8272451;28;20040;-63
2022/10/18 08:29:35;;;;;;;0.52;0.50;;;;;;;;;;8272711;28;20280;-63
2022/10/18 08:33:35;;;;;;;1.95;0.43;;;;;;;;;;8268543;28;20073;-63
2022/10/18 08:37:35;;;;;;;1.52;0.50;;;;;;;;;;8271325;28;20088;-63
2022/10/18 08:41:35;;;;;;;1.50;0.68;;;;;;;;;;8270679;28;20044;-63
2022/10/18 08:45:37;;;;;;;1.55;0.70;;;;;;;;;;8270069;28;20045;-63
2022/10/18 08:49:50;;;;;;;0.57;0.57;;;;;;;;;;8270546;28;20909;-64
2022/10/18 08:53:53;;;;;;;6.95;2.10;;;;;;;;;;8271452;28;20029;-63
2022/10/18 08:57:53;;;;;;;8.50;3.97;;;;;;;;;;8272287;28;20140;-63
2022/10/18 09:02:09;;;;;;;5.93;4.60;;;;;;;;;;8268165;28;20077;-63
2022/10/18 09:06:09;;;;;;;8.93;4.70;;;;;;;;;;8269339;28;20107;-63
2022/10/18 09:10:28;;;;;;;13.27;4.70;;;;;;;;;;8269502;28;20025;-63
2022/10/18 09:14:46;;;;;;;6.22;4.57;;;;;;;;;;8270358;28;20034;-63
2022/10/18 09:19:05;;;;;;;13.88;4.57;;;;;;;;;;8269004;28;20160;-63
2022/10/18 09:23:19;;;;;;;6.32;3.72;;;;;;;;;;8269870;28;20022;-63
2022/10/18 09:27:21;;;;;;;9.15;3.78;;;;;;;;;;8268656;28;20033;-63
2022/10/18 09:31:43;;;;;;;14.40;3.80;;;;;;;;;;8269570;28;20362;-63
2022/10/18 09:35:43;;;;;;;5.45;3.03;;;;;;;;;;8269271;28;20120;-63
2022/10/18 09:39:44;;;;;;;5.93;3.08;;;;;;;;;;8278147;28;20057;-63
2022/10/18 09:43:47;;;;;;;8.27;3.53;;;;;;;;;;8272025;28;20025;-63
2022/10/18 09:47:56;;;;;;;2.72;2.53;;;;;;;;;;8268309;28;20417;-63
2022/10/18 09:52:00;;;;;;;4.65;2.63;;;;;;;;;;8267957;28;20026;-63
2022/10/18 09:56:02;;;;;;;5.80;2.97;;;;;;;;;;8269617;28;20384;-63
2022/10/18 10:00:04;;;;;;;5.23;2.43;;;;;;;;;;8266777;28;20029;-64
2022/10/18 10:04:04;;;;;;;5.28;2.08;;;;;;;;;;8268163;28;20030;-63
2022/10/18 10:08:04;;;;;;;7.63;1.97;;;;;;;;;;8269410;28;20057;-63
2022/10/18 10:12:04;;;;;;;5.77;1.90;;;;;;;;;;8269643;28;20053;-63
2022/10/18 10:16:05;;;;;;;6.00;2.17;;;;;;;;;;8268418;28;20033;-63
2022/10/18 10:20:14;;;;;;;3.73;1.83;;;;;;;;;;8266909;28;20040;-63
2022/10/18 10:24:23;;;;;;;4.18;1.90;;;;;;;;;;8268664;28;20330;-63
2022/10/18 10:28:28;;;;;;;3.35;1.83;;;;;;;;;;8267385;28;20037;-63
2022/10/18 10:32:30;;;;;;;4.68;1.70;;;;;;;;;;8268749;28;20859;-63
2022/10/18 10:36:31;;;;;;;6.10;1.80;;;;;;;;;;8268976;28;20083;-63
2022/10/18 10:40:33;;;;;;;3.58;1.60;;;;;;;;;;8266726;28;20348;-64
2022/10/18 10:44:34;;;;;;;3.53;1.20;;;;;;;;;;8267370;28;20038;-63
2022/10/18 10:48:40;;;;;;;1.27;1.05;;;;;;;;;;8269390;28;20384;-63
2022/10/18 10:52:46;;;;;;;5.68;1.20;;;;;;;;;;8268719;28;20225;-63
2022/10/18 10:56:49;;;;;;;2.03;1.20;;;;;;;;;;8267480;28;20025;-63
2022/10/18 11:00:49;;;;;;;4.18;1.15;;;;;;;;;;8268420;28;20145;-63
2022/10/18 11:04:50;;;;;;;2.10;0.90;;;;;;;;;;8267100;28;20069;-63
2022/10/18 11:08:51;;;;;;;3.60;1.00;;;;;;;;;;8268140;28;20637;-63
2022/10/18 11:12:55;;;;;;;0.98;0.80;;;;;;;;;;8275234;28;20084;-63
2022/10/18 11:17:04;;;;;;;1.10;1.00;;;;;;;;;;8272872;28;20085;-63
2022/10/18 11:21:06;;;;;;;1.55;0.90;;;;;;;;;;8273857;28;20060;-63
2022/10/18 11:25:12;;;;;;;2.20;0.82;;;;;;;;;;8275547;28;20029;-63
2022/10/18 11:29:27;;;;;;;2.30;0.80;;;;;;;;;;8271816;28;20182;-63
2022/10/18 11:33:27;;;;;;;1.63;0.63;;;;;;;;;;8288086;28;20046;-63
2022/10/18 11:37:39;;;;;;;0.50;0.50;;;;;;;;;;8272268;28;20042;-63
2022/10/18 11:41:45;;;;;;;1.05;0.52;;;;;;;;;;8271467;28;20025;-63
2022/10/18 11:45:56;;;;;;;0.77;0.50;;;;;;;;;;8273202;28;20040;-63
2022/10/18 11:49:56;;;;;;;2.25;0.50;;;;;;;;;;8272643;28;20033;-63
2022/10/18 11:54:05;;;;;;;1.10;0.50;;;;;;;;;;8274442;28;20351;-63
2022/10/18 11:58:24;;;;;;;1.52;0.43;;;;;;;;;;8274483;28;20028;-63
2022/10/18 12:02:40;;;;;;;0.73;0.50;;;;;;;;;;8272620;28;20037;-63
2022/10/18 12:06:42;;;;;;;4.18;0.60;;;;;;;;;;8274898;28;20025;-63
2022/10/18 12:10:46;;;;;;;1.48;0.60;;;;;;;;;;8274146;28;20127;-63
2022/10/18 12:14:51;;;;;;;0.52;0.50;;;;;;;;;;8272179;28;20026;-63
2022/10/18 12:18:53;;;;;;;0.43;0.40;;;;;;;;;;8274454;28;20034;-63
2022/10/18 12:23:00;;;;;;;1.48;0.50;;;;;;;;;;8274904;28;20087;-63
2022/10/18 12:27:01;;;;;;;1.00;0.40;;;;;;;;;;8271309;28;20050;-63
2022/10/18 12:31:28;;;;;;;0.50;0.40;;;;;;;;;;8273611;28;20266;-63
2022/10/18 12:35:30;;;;;;;4.93;0.50;;;;;;;;;;8272225;28;20126;-63
2022/10/18 12:39:32;;;;;;;0.95;0.40;;;;;;;;;;8280843;28;20042;-63
2022/10/18 12:43:35;;;;;;;0.40;0.38;;;;;;;;;;8272662;28;20028;-63
2022/10/18 12:47:36;;;;;;;2.83;0.52;;;;;;;;;;8271839;28;20030;-63
2022/10/18 12:51:48;;;;;;;1.05;0.40;;;;;;;;;;8272591;28;20176;-63
2022/10/18 12:55:50;;;;;;;2.75;0.43;;;;;;;;;;8270761;28;20025;-63
2022/10/18 12:59:50;;;;;;;0.57;0.30;;;;;;;;;;8272926;28;20030;-63
2022/10/18 13:03:55;;;;;;;0.40;0.40;;;;;;;;;;8270961;28;20310;-63
2022/10/18 13:08:01;;;;;;;0.45;0.40;;;;;;;;;;8273096;28;20022;-63
2022/10/18 13:12:07;;;;;;;0.52;0.50;;;;;;;;;;8271162;28;20480;-63
2022/10/18 13:16:27;;;;;;;3.33;0.50;;;;;;;;;;8270125;28;20084;-63
2022/10/18 13:20:33;;;;;;;0.40;0.40;;;;;;;;;;8271142;28;20029;-63
2022/10/18 13:24:35;;;;;;;0.38;0.30;;;;;;;;;;8270229;28;20706;-63
2022/10/18 13:28:55;;;;;;;0.60;0.40;;;;;;;;;;8272070;28;20033;-63
2022/10/18 13:33:21;;;;;;;4.07;0.55;;;;;;;;;;8271726;28;20049;-63
2022/10/18 13:37:24;;;;;;;1.45;0.40;;;;;;;;;;8271847;28;20544;-63
2022/10/18 13:41:25;;;;;;;1.65;0.50;;;;;;;;;;8271960;28;20026;-63
2022/10/18 13:45:31;;;;;;;1.23;0.50;;;;;;;;;;8270469;28;20042;-63
2022/10/18 13:49:32;;;;;;;1.38;0.40;;;;;;;;;;8268356;28;20852;-63
2022/10/18 13:53:41;;;;;;;0.40;0.40;;;;;;;;;;8268990;28;20413;-63
2022/10/18 13:57:41;;;;;;;1.88;0.50;;;;;;;;;;8270708;28;20128;-63
2022/10/18 14:01:47;;;;;;;3.65;0.50;;;;;;;;;;8269605;28;20061;-63
2022/10/18 14:05:48;;;;;;;0.50;0.50;;;;;;;;;;8271720;28;20769;-63
2022/10/18 14:09:50;;;;;;;1.05;0.45;;;;;;;;;;8267439;28;20030;-63
2022/10/18 14:14:00;;;;;;;3.78;0.50;;;;;;;;;;8269501;28;20041;-63
2022/10/18 14:18:02;;;;;;;0.80;0.50;;;;;;;;;;8267422;28;20026;-63
2022/10/18 14:22:10;;;;;;;1.30;0.65;;;;;;;;;;8268308;28;20029;-63
2022/10/18 14:26:17;;;;;;;0.38;0.38;;;;;;;;;;8268554;28;20032;-63
2022/10/18 14:30:19;;;;;;;1.20;0.45;;;;;;;;;;8267776;28;20034;-64
2022/10/18 14:34:19;;;;;;;2.05;0.50;;;;;;;;;;8270730;28;20103;-63
2022/10/18 14:38:21;;;;;;;0.68;0.40;;;;;;;;;;8270101;28;20025;-63
2022/10/18 14:42:23;;;;;;;0.50;0.50;;;;;;;;;;8269741;28;20110;-63
2022/10/18 14:46:25;;;;;;;0.47;0.47;;;;;;;;;;8269017;28;20037;-64
2022/10/18 14:50:26;;;;;;;1.60;0.70;;;;;;;;;;8269998;28;20554;-63
2022/10/18 14:54:31;;;;;;;1.10;0.50;;;;;;;;;;8269869;28;20593;-63
2022/10/18 14:58:33;;;;;;;3.28;0.60;;;;;;;;;;8267539;28;20911;-63
2022/10/18 15:02:37;;;;;;;3.30;0.90;;;;;;;;;;8268609;28;20049;-63
2022/10/18 15:06:41;;;;;;;2.00;0.88;;;;;;;;;;8269099;28;20447;-63
2022/10/18 15:10:41;;;;;;;2.80;1.23;;;;;;;;;;8267095;28;20036;-63
2022/10/18 15:14:42;;;;;;;1.30;0.85;;;;;;;;;;8270575;28;20501;-63
2022/10/18 15:18:42;;;;;;;3.75;0.68;;;;;;;;;;8258385;28;20474;-63
2022/10/18 15:22:45;;;;;;;0.80;0.70;;;;;;;;;;8258474;28;20030;-63
2022/10/18 15:26:46;;;;;;;2.53;0.60;;;;;;;;;;8259390;28;20327;-63
2022/10/18 15:30:47;;;;;;;2.63;0.57;;;;;;;;;;8260851;28;20491;-63
2022/10/18 15:34:47;;;;;;;2.97;0.70;;;;;;;;;;8261440;28;20502;-63
2022/10/18 15:38:47;;;;;;;2.03;0.60;;;;;;;;;;8268835;28;20021;-63
2022/10/18 15:42:48;;;;;;;3.65;0.60;;;;;;;;;;8261414;28;20026;-63
2022/10/18 15:46:51;;;;;;;3.70;0.80;;;;;;;;;;8260225;28;20033;-63
2022/10/18 15:51:03;;;;;;;1.65;0.90;;;;;;;;;;8261207;28;20117;-63
2022/10/18 15:55:22;;;;;;;3.83;2.22;;;;;;;;;;8259803;28;20368;-63
2022/10/18 15:59:27;;;;;;;6.35;2.10;;;;;;;;;;8267768;28;20029;-63
2022/10/18 16:03:27;;;;;;;2.85;1.65;;;;;;;;;;8263730;28;20639;-63
2022/10/18 16:07:27;;;;;;;3.63;1.20;;;;;;;;;;8264996;28;20022;-63
2022/10/18 16:11:28;;;;;;;3.00;1.08;;;;;;;;;;8267404;28;20026;-63
2022/10/18 16:15:28;;;;;;;2.70;0.98;;;;;;;;;;8264745;28;20539;-63
2022/10/18 16:19:29;;;;;;;2.28;1.10;;;;;;;;;;8268098;28;20025;-63
2022/10/18 16:23:29;;;;;;;8.43;1.45;;;;;;;;;;8263851;28;20533;-63
2022/10/18 16:27:29;;;;;;;3.92;0.80;;;;;;;;;;8266627;28;20508;-63
2022/10/18 16:31:31;;;;;;;4.75;0.80;;;;;;;;;;8263603;28;20521;-63
2022/10/18 16:35:31;;;;;;;8.27;3.53;;;;;;;;;;8266838;28;20055;-63
2022/10/18 16:39:33;;;;;;;10.50;4.53;;;;;;;;;;8265964;28;20037;-63
2022/10/18 16:43:34;;;;;;;18.73;8.98;;;;;;;;;;8264018;28;20029;-63
2022/10/18 16:47:34;;;;;;;14.98;5.75;;;;;;;;;;8265998;28;20041;-63
2022/10/18 16:51:34;;;;;;;7.38;3.50;;;;;;;;;;8266639;28;20057;-63
2022/10/18 16:55:35;;;;;;;9.85;3.30;;;;;;;;;;8263835;28;20104;-63
2022/10/18 16:59:35;;;;;;;12.13;4.55;;;;;;;;;;8264543;28;20447;-62
2022/10/18 17:03:35;;;;;;;8.88;2.75;;;;;;;;;;8265090;28;20135;-63
2022/10/18 17:07:36;;;;;;;5.72;1.98;;;;;;;;;;8265199;28;20022;-63
2022/10/18 17:11:36;;;;;;;3.25;1.55;;;;;;;;;;8264285;28;20041;-63
2022/10/18 17:15:37;;;;;;;1.85;1.40;;;;;;;;;;8265934;28;20045;-63
2022/10/18 17:19:37;;;;;;;3.42;1.38;;;;;;;;;;8263640;28;20326;-63
2022/10/18 17:23:37;;;;;;;6.38;1.23;;;;;;;;;;8264298;28;20639;-63
2022/10/18 17:27:38;;;;;;;8.68;1.20;;;;;;;;;;8262965;28;20060;-63
2022/10/18 17:31:38;;;;;;;2.85;1.73;;;;;;;;;;8262996;28;20537;-63
2022/10/18 17:35:38;;;;;;;2.00;1.30;;;;;;;;;;8263546;28;20690;-63
2022/10/18 17:39:38;;;;;;;2.57;1.30;;;;;;;;;;8263393;28;20554;-63
2022/10/18 17:43:39;;;;;;;7.88;1.40;;;;;;;;;;8263123;28;20693;-63
2022/10/18 17:47:39;;;;;;;1.17;1.08;;;;;;;;;;8263167;28;20045;-63
2022/10/18 17:51:40;;;;;;;4.68;1.30;;;;;;;;;;8264179;28;20034;-63
2022/10/18 17:55:40;;;;;;;2.15;1.50;;;;;;;;;;8261574;28;20533;-63
2022/10/18 17:59:40;;;;;;;6.85;1.55;;;;;;;;;;8265447;28;20037;-63
2022/10/18 18:03:41;;;;;;;6.28;2.33;;;;;;;;;;8264268;28;20026;-62
2022/10/18 18:07:41;;;;;;;4.38;2.58;;;;;;;;;;8264624;28;20164;-63
2022/10/18 18:11:42;;;;;;;3.92;2.08;;;;;;;;;;8264114;28;20065;-63
2022/10/18 18:15:43;;;;;;;7.10;2.05;;;;;;;;;;8262784;28;20073;-63
2022/10/18 18:19:43;;;;;;;2.92;1.98;;;;;;;;;;8261800;28;20037;-63
2022/10/18 18:23:43;;;;;;;6.03;2.00;;;;;;;;;;8262787;28;20026;-63
2022/10/18 18:27:44;;;;;;;6.07;2.20;;;;;;;;;;8263277;28;20029;-63
2022/10/18 18:31:44;;;;;;;6.38;2.65;;;;;;;;;;8261507;28;20108;-63
2022/10/18 18:35:52;;;;;;;5.80;2.50;;;;;;;;;;8262304;28;20585;-63
2022/10/18 18:39:53;;;;;;;3.55;2.70;;;;;;;;;;8261591;28;20432;-63
2022/10/18 18:43:55;;;;;;;4.03;2.60;;;;;;;;;;8261705;28;20057;-63
2022/10/18 18:47:55;;;;;;;4.15;2.75;;;;;;;;;;8261336;28;20449;-63
2022/10/18 18:51:55;;;;;;;5.07;3.47;;;;;;;;;;8263266;28;20088;-63
2022/10/18 18:55:59;;;;;;;5.90;2.60;;;;;;;;;;8263191;28;21259;-63
2022/10/18 18:59:59;;;;;;;;;;;;;;;;;;8261511;28;20028;-63
2022/10/18 19:04:00;;;;;;;3.22;2.22;;;;;;;;;;8262332;28;20334;-63
2022/10/18 19:08:01;;;;;;;3.67;2.45;;;;;;;;;;8264815;28;20565;-62
2022/10/18 19:12:01;;;;;;;5.55;2.80;;;;;;;;;;8260144;28;20064;-63
2022/10/18 19:16:17;;;;;;;7.78;2.88;;;;;;;;;;8260312;28;20038;-63
2022/10/18 19:20:17;;;;;;;4.60;3.72;;;;;;;;;;8261792;28;20038;-63
2022/10/18 19:24:18;;;;;;;6.53;3.58;;;;;;;;;;8261797;28;20394;-63
2022/10/18 19:28:18;;;;;;;4.55;3.17;;;;;;;;;;8261733;28;20823;-63
2022/10/18 19:32:18;;;;;;;4.97;4.47;;;;;;;;;;8264962;28;20033;-63
2022/10/18 19:36:19;;;;;;;8.35;6.63;;;;;;;;;;8269054;28;20025;-63
2022/10/18 19:40:19;;;;;;;7.65;4.90;;;;;;;;;;8265946;28;20127;-63
2022/10/18 19:44:20;;;;;;;9.73;4.60;;;;;;;;;;8267775;28;20171;-63
2022/10/18 19:48:20;;;;;;;4.68;4.03;;;;;;;;;;8267447;28;20359;-63
2022/10/18 19:52:20;;;;;;;8.82;5.18;;;;;;;;;;8268498;28;20828;-63
2022/10/18 19:56:22;;;;;;;8.20;4.82;;;;;;;;;;8267644;28;20112;-63
2022/10/18 20:00:22;;;;;;;5.82;5.15;;;;;;;;;;8266807;28;20033;-63
2022/10/18 20:04:22;;;;;;;6.37;5.70;;;;;;;;;;8267770;28;20255;-63
2022/10/18 20:08:23;;;;;;;10.95;6.35;;;;;;;;;;8269798;28;20022;-62
2022/10/18 20:12:23;;;;;;;15.15;7.45;;;;;;;;;;8266954;28;20623;-63
2022/10/18 20:16:28;;;;;;;10.68;7.50;;;;;;;;;;8265747;28;20460;-63
2022/10/18 20:20:29;;;;;;;11.52;8.40;;;;;;;;;;8266804;28;20437;-63
2022/10/18 20:24:29;;;;;;;13.73;10.20;;;;;;;;;;8265753;28;20574;-63
2022/10/18 20:28:29;;;;;;;15.82;11.05;;;;;;;;;;8266381;28;20041;-63
2022/10/18 20:32:29;;;;;;;20.52;12.57;;;;;;;;;;8264931;28;20342;-63
2022/10/18 20:36:31;;;;;;;20.17;12.32;;;;;;;;;;8264345;28;20061;-63
2022/10/18 20:40:31;;;;;;;22.05;11.55;;;;;;;;;;8264485;28;20026;-63
2022/10/18 20:44:32;;;;;;;18.00;10.63;;;;;;;;;;8266871;28;20029;-63
2022/10/18 20:48:33;;;;;;;21.00;11.82;;;;;;;;;;8264436;28;20284;-63
2022/10/18 20:52:33;;;;;;;19.10;12.52;;;;;;;;;;8265400;28;20029;-63
2022/10/18 20:56:35;;;;;;;16.33;11.30;;;;;;;;;;8265037;28;20442;-63
2022/10/18 21:00:35;;;;;;;17.42;12.27;;;;;;;;;;8264398;28;20133;-63
2022/10/18 21:04:35;;;;;;;14.93;11.70;;;;;;;;;;8266210;28;20311;-63
2022/10/18 21:08:36;;;;;;;16.33;12.27;;;;;;;;;;8265560;28;20660;-63
2022/10/18 21:12:36;;;;;;;18.00;12.85;;;;;;;;;;8265031;28;20371;-63
2022/10/18 21:16:36;;;;;;;17.45;12.02;;;;;;;;;;8265355;28;20608;-63
2022/10/18 21:20:36;;;;;;;18.30;12.18;;;;;;;;;;8271033;28;20033;-63
2022/10/18 21:24:37;;;;;;;19.50;12.20;;;;;;;;;;8264699;28;20551;-63
2022/10/18 21:28:37;;;;;;;19.70;13.45;;;;;;;;;;8265657;28;20021;-63
2022/10/18 21:32:37;;;;;;;21.27;13.52;;;;;;;;;;8262953;28;20061;-63
2022/10/18 21:36:38;;;;;;;23.08;14.82;;;;;;;;;;8263631;28;20463;-63
2022/10/18 21:40:43;;;;;;;24.63;15.07;;;;;;;;;;8262084;28;20092;-63
2022/10/18 21:44:43;;;;;;;33.85;17.10;;;;;;;;;;8262923;28;20036;-63
2022/10/18 21:48:44;;;;;;;23.52;15.32;;;;;;;;;;8263933;28;20228;-63
2022/10/18 21:52:44;;;;;;;22.08;14.88;;;;;;;;;;8262286;28;20422;-63
2022/10/18 21:56:44;;;;;;;54.15;17.33;;;;;;;;;;8264226;28;20140;-63
2022/10/18 22:00:45;;;;;;;35.30;17.60;;;;;;;;;;8263240;28;20053;-63
2022/10/18 22:04:45;;;;;;;28.77;17.95;;;;;;;;;;8262700;28;20081;-63
2022/10/18 22:08:47;;;;;;;37.22;18.13;;;;;;;;;;8261658;28;20040;-63
2022/10/18 22:12:47;;;;;;;41.22;19.65;;;;;;;;;;8262837;28;20432;-63
2022/10/18 22:16:48;;;;;;;35.03;19.20;;;;;;;;;;8262455;28;20095;-62
2022/10/18 22:21:02;;;;;;;34.75;19.67;;;;;;;;;;8262634;28;20025;-63
2022/10/18 22:25:02;;;;;;;33.35;19.35;;;;;;;;;;8262648;28;20021;-63
2022/10/18 22:29:04;;;;;;;29.48;18.05;;;;;;;;;;8262841;28;20479;-63
2022/10/18 22:33:04;;;;;;;30.20;18.58;;;;;;;;;;8260267;28;20430;-63
2022/10/18 22:37:05;;;;;;;32.30;17.17;;;;;;;;;;8263215;28;20569;-63
2022/10/18 22:41:10;;;;;;;49.42;18.58;;;;;;;;;;8261787;28;20029;-63
2022/10/18 22:45:10;;;;;;;87.45;19.40;;;;;;;;;;8261866;28;20021;-63
2022/10/18 22:49:10;;;;;;;35.60;16.60;;;;;;;;;;8263123;28;20028;-63
2022/10/18 22:53:10;;;;;;;78.07;18.25;;;;;;;;;;8262330;28;20025;-63
2022/10/18 22:57:11;;;;;;;31.85;15.52;;;;;;;;;;8262982;28;20468;-63
2022/10/18 23:01:12;;;;;;;53.17;16.00;;;;;;;;;;8262488;28;20042;-63
2022/10/18 23:05:12;;;;;;;167.68;18.98;;;;;;;;;;8261605;28;20144;-63
2022/10/18 23:09:12;;;;;;;135.98;17.05;;;;;;;;;;8261532;28;20059;-63
2022/10/18 23:13:14;;;;;;;108.68;16.42;;;;;;;;;;8261450;28;20018;-63
2022/10/18 23:17:14;;;;;;;64.15;14.30;;;;;;;;;;8261633;28;20730;-63
2022/10/18 23:21:14;;;;;;;93.43;14.27;;;;;;;;;;8260726;28;20033;-63
2022/10/18 23:25:14;;;;;;;40.78;14.70;;;;;;;;;;8260888;28;20028;-63
2022/10/18 23:29:15;;;;;;;38.83;15.52;;;;;;;;;;8262583;28;20073;-63
2022/10/18 23:33:15;;;;;;;35.53;13.93;;;;;;;;;;8260816;28;20041;-63
2022/10/18 23:37:15;;;;;;;35.35;15.15;;;;;;;;;;8262369;28;20022;-63
2022/10/18 23:41:16;;;;;;;43.90;15.48;;;;;;;;;;8260346;28;20593;-63
2022/10/18 23:45:16;;;;;;;52.30;16.15;;;;;;;;;;8260330;28;20244;-63
2022/10/18 23:49:16;;;;;;;36.47;17.00;;;;;;;;;;8259129;28;20151;-63
2022/10/18 23:53:18;;;;;;;40.00;16.50;;;;;;;;;;8261099;28;20366;-63
2022/10/18 23:57:18;;;;;;;35.05;15.73;;;;;;;;;;8259756;28;20468;-63
